createdAt,value
2022-10-20T00:01:11.055Z,97.52
2022-10-20T00:03:38.461Z,97.54
2022-10-20T00:06:18.183Z,97.61
2022-10-20T00:08:45.994Z,97.43
2022-10-20T00:11:15.116Z,97.50
2022-10-20T00:13:43.266Z,97.58
2022-10-20T00:16:10.243Z,97.52
2022-10-20T00:18:37.113Z,97.66
2022-10-20T00:21:08.766Z,97.79
2022-10-20T00:23:36.278Z,97.97
2022-10-20T00:26:05.905Z,98.55
2022-10-20T00:28:33.393Z,98.63
2022-10-20T00:31:00.319Z,98.41
2022-10-20T00:33:27.477Z,98.07
2022-10-20T00:35:54.219Z,97.66
2022-10-20T00:38:21.210Z,97.35
2022-10-20T00:40:47.870Z,97.72
2022-10-20T00:43:16.515Z,97.57
2022-10-20T00:45:49.419Z,97.86
2022-10-20T00:48:20.111Z,98.68
2022-10-20T00:50:50.461Z,99.22
2022-10-20T00:53:18.396Z,99.03
2022-10-20T00:55:49.771Z,98.61
2022-10-20T00:58:16.831Z,98.58
2022-10-20T01:00:46.189Z,99.25
2022-10-20T01:03:20.783Z,99.24
2022-10-20T01:05:47.429Z,99.20
2022-10-20T01:08:14.105Z,99.18
2022-10-20T01:11:18.984Z,98.94
2022-10-20T01:14:07.305Z,98.91
2022-10-20T01:16:52.045Z,98.56
2022-10-20T01:20:03.939Z,98.71
2022-10-20T01:22:37.338Z,98.84
2022-10-20T01:25:51.678Z,98.75
2022-10-20T01:28:31.765Z,98.66
2022-10-20T01:31:01.429Z,98.94
2022-10-20T01:33:48.733Z,98.87
2022-10-20T01:36:47.792Z,98.80
2022-10-20T01:39:37.988Z,98.63
2022-10-20T01:42:10.976Z,98.50
2022-10-20T01:44:40.104Z,98.63
2022-10-20T01:47:09.737Z,98.41
2022-10-20T01:49:36.829Z,98.64
2022-10-20T01:52:04.092Z,98.77
2022-10-20T01:54:30.933Z,98.50
2022-10-20T01:57:30.327Z,98.81
2022-10-20T02:00:09.191Z,98.99
2022-10-20T02:03:17.204Z,98.91
2022-10-20T02:06:02.585Z,98.38
2022-10-20T02:08:35.702Z,98.32
2022-10-20T02:11:05.311Z,98.25
2022-10-20T02:13:35.600Z,98.74
2022-10-20T02:16:08.768Z,98.54
2022-10-20T02:18:41.584Z,98.55
2022-10-20T02:21:08.663Z,98.52
2022-10-20T02:23:38.643Z,98.89
2022-10-20T02:26:13.160Z,98.87
2022-10-20T02:28:44.680Z,98.90
2022-10-20T02:31:11.487Z,98.90
2022-10-20T02:33:39.145Z,98.89
2022-10-20T02:36:07.158Z,99.10
2022-10-20T02:38:33.834Z,99.03
2022-10-20T02:41:00.644Z,99.01
2022-10-20T02:43:27.380Z,99.32
2022-10-20T02:45:54.079Z,99.70
2022-10-20T02:48:20.783Z,99.42
2022-10-20T02:50:47.580Z,99.33
2022-10-20T02:53:14.427Z,99.07
2022-10-20T02:55:42.737Z,99.06
2022-10-20T02:58:10.178Z,98.96
2022-10-20T03:00:37.055Z,98.82
2022-10-20T03:03:03.870Z,98.96
2022-10-20T03:05:30.605Z,99.03
2022-10-20T03:07:57.391Z,99.17
2022-10-20T03:10:24.141Z,98.98
2022-10-20T03:12:50.849Z,99.20
2022-10-20T03:15:17.522Z,99.22
2022-10-20T03:17:44.187Z,98.90
2022-10-20T03:20:11.248Z,99.13
2022-10-20T03:22:38.085Z,100.08
2022-10-20T03:25:05.210Z,100.64
2022-10-20T03:27:32.004Z,101.09
2022-10-20T03:29:58.668Z,101.68
2022-10-20T03:32:25.396Z,101.96
2022-10-20T03:34:52.120Z,102.34
2022-10-20T03:37:18.871Z,102.39
2022-10-20T03:39:45.586Z,102.18
2022-10-20T03:42:12.328Z,102.40
2022-10-20T03:44:39.880Z,102.41
2022-10-20T03:47:07.043Z,102.12
2022-10-20T03:49:33.942Z,102.20
2022-10-20T03:52:00.820Z,102.08
2022-10-20T03:54:27.634Z,102.08
2022-10-20T03:56:54.292Z,102.09
2022-10-20T03:59:22.146Z,102.10
2022-10-20T04:01:50.614Z,101.95
2022-10-20T04:04:17.505Z,101.74
2022-10-20T04:06:44.257Z,101.51
2022-10-20T04:09:10.969Z,101.17
2022-10-20T04:11:37.785Z,101.46
2022-10-20T04:14:04.489Z,101.71
2022-10-20T04:16:31.182Z,101.61
2022-10-20T04:18:57.995Z,101.75
2022-10-20T04:21:26.276Z,101.70
2022-10-20T04:23:53.253Z,101.48
2022-10-20T04:26:20.008Z,101.41
2022-10-20T04:28:46.988Z,101.53
2022-10-20T04:31:14.479Z,101.68
2022-10-20T04:33:41.378Z,101.73
2022-10-20T04:36:12.016Z,101.51
2022-10-20T04:38:38.819Z,101.31
2022-10-20T04:41:05.719Z,101.53
2022-10-20T04:43:33.407Z,101.62
2022-10-20T04:46:08.117Z,101.54
2022-10-20T04:48:37.079Z,101.66
2022-10-20T04:51:09.679Z,101.74
2022-10-20T04:53:37.068Z,101.63
2022-10-20T04:56:05.711Z,101.69
2022-10-20T04:58:32.742Z,101.64
2022-10-20T05:01:08.662Z,101.57
2022-10-20T05:03:36.430Z,101.19
2022-10-20T05:06:16.831Z,101.42
2022-10-20T05:08:46.613Z,101.68
2022-10-20T05:11:15.105Z,101.71
2022-10-20T05:13:42.351Z,101.80
2022-10-20T05:16:10.604Z,101.96
2022-10-20T05:18:38.407Z,101.83
2022-10-20T05:21:10.582Z,101.34
2022-10-20T05:23:39.098Z,101.15
2022-10-20T05:26:08.177Z,101.15
2022-10-20T05:28:35.419Z,101.35
2022-10-20T05:31:07.369Z,101.36
2022-10-20T05:33:34.951Z,101.11
2022-10-20T05:36:07.605Z,101.08
2022-10-20T05:38:36.721Z,101.03
2022-10-20T05:41:17.805Z,100.67
2022-10-20T05:43:49.715Z,101.17
2022-10-20T05:46:17.051Z,101.42
2022-10-20T05:48:44.215Z,101.80
2022-10-20T05:51:19.175Z,102.27
2022-10-20T05:53:47.108Z,102.36
2022-10-20T05:56:17.313Z,102.44
2022-10-20T05:58:44.620Z,102.35
2022-10-20T06:01:20.674Z,102.14
2022-10-20T06:03:52.382Z,101.78
2022-10-20T06:06:21.385Z,101.72
2022-10-20T06:08:48.694Z,101.83
2022-10-20T06:11:15.866Z,101.82
2022-10-20T06:13:43.649Z,101.86
2022-10-20T06:16:17.577Z,101.82
2022-10-20T06:18:44.394Z,102.45
2022-10-20T06:21:25.588Z,102.63
2022-10-20T06:23:52.785Z,102.63
2022-10-20T06:26:22.884Z,102.86
2022-10-20T06:28:59.824Z,102.68
2022-10-20T06:31:41.452Z,102.41
2022-10-20T06:34:12.745Z,102.25
2022-10-20T06:36:41.915Z,102.05
2022-10-20T06:39:12.441Z,101.91
2022-10-20T06:41:39.555Z,101.86
2022-10-20T06:44:07.194Z,101.92
2022-10-20T06:46:37.188Z,101.77
2022-10-20T06:49:06.735Z,101.67
2022-10-20T06:51:35.376Z,101.60
2022-10-20T06:54:02.358Z,101.42
2022-10-20T06:56:30.601Z,101.18
2022-10-20T06:58:58.383Z,101.11
2022-10-20T07:01:27.400Z,101.08
2022-10-20T07:03:57.182Z,101.03
2022-10-20T07:06:35.370Z,101.18
2022-10-20T07:09:08.269Z,101.06
2022-10-20T07:11:35.879Z,101.08
2022-10-20T07:14:03.824Z,101.22
2022-10-20T07:16:33.727Z,101.03
2022-10-20T07:19:02.336Z,100.70
2022-10-20T07:21:34.593Z,100.47
2022-10-20T07:24:06.119Z,100.14
2022-10-20T07:26:35.391Z,100.40
2022-10-20T07:29:03.898Z,100.23
2022-10-20T07:31:33.627Z,99.96
2022-10-20T07:34:12.779Z,99.93
2022-10-20T07:36:43.780Z,99.52
2022-10-20T07:39:12.229Z,99.51
2022-10-20T07:41:40.091Z,99.19
2022-10-20T07:44:07.502Z,98.93
2022-10-20T07:46:34.820Z,98.79
2022-10-20T07:51:48.525Z,97.08
2022-10-20T07:54:15.263Z,96.75
2022-10-20T07:56:43.668Z,96.39
2022-10-20T07:59:11.427Z,94.68
2022-10-20T08:01:38.559Z,93.59
2022-10-20T08:04:05.464Z,92.46
2022-10-20T08:06:32.176Z,91.89
2022-10-20T08:09:00.234Z,91.29
2022-10-20T08:11:27.219Z,90.95
2022-10-20T08:13:54.054Z,90.00
2022-10-20T08:16:29.530Z,89.86
2022-10-20T08:21:37.054Z,87.46
2022-10-20T08:24:03.949Z,85.17
2022-10-20T08:26:30.924Z,84.12
2022-10-20T08:28:57.666Z,82.39
2022-10-20T08:31:24.669Z,80.59
2022-10-20T08:33:53.185Z,79.18
2022-10-20T08:36:21.247Z,75.71
2022-10-20T08:38:48.809Z,73.21
2022-10-20T08:41:22.597Z,72.61
2022-10-20T08:43:52.502Z,71.30
2022-10-20T08:46:30.100Z,69.97
2022-10-20T08:48:57.534Z,68.38
2022-10-20T08:51:33.002Z,66.30
2022-10-20T08:54:02.135Z,65.96
2022-10-20T08:56:31.228Z,62.20
2022-10-20T08:58:58.064Z,62.99
2022-10-20T09:01:28.591Z,62.16
2022-10-20T09:04:04.034Z,60.92
2022-10-20T09:06:31.123Z,59.80
2022-10-20T09:08:58.036Z,58.69
2022-10-20T09:11:32.051Z,57.97
2022-10-20T09:13:58.920Z,56.61
2022-10-20T09:16:40.555Z,56.75
2022-10-20T09:19:20.820Z,57.69
2022-10-20T09:21:53.344Z,54.50
2022-10-20T09:24:21.936Z,55.83
2022-10-20T09:26:58.588Z,54.77
2022-10-20T09:29:37.642Z,55.65
2022-10-20T09:32:44.904Z,56.07
2022-10-20T09:35:19.851Z,59.18
2022-10-20T09:37:58.422Z,60.96
2022-10-20T09:40:26.804Z,61.73
2022-10-20T09:43:11.474Z,64.01
2022-10-20T09:45:54.958Z,63.85
2022-10-20T09:48:30.726Z,64.65
2022-10-20T09:50:58.767Z,64.19
2022-10-20T09:53:46.216Z,64.76
2022-10-20T09:56:13.126Z,63.24
2022-10-20T09:58:39.988Z,64.94
2022-10-20T10:01:14.792Z,65.05
2022-10-20T10:03:46.059Z,66.24
2022-10-20T10:06:43.607Z,65.17
2022-10-20T10:09:37.666Z,64.16
2022-10-20T10:12:10.506Z,64.74
2022-10-20T10:14:37.727Z,65.43
2022-10-20T10:17:04.759Z,64.55
2022-10-20T10:19:33.308Z,65.66
2022-10-20T10:22:04.408Z,64.59
2022-10-20T10:24:46.391Z,64.57
2022-10-20T10:27:21.384Z,63.53
2022-10-20T10:29:48.249Z,62.76
2022-10-20T10:32:26.796Z,63.36
2022-10-20T10:35:24.167Z,64.14
2022-10-20T10:37:52.986Z,63.51
2022-10-20T10:40:24.174Z,63.89
2022-10-20T10:43:24.934Z,63.13
2022-10-20T10:46:05.839Z,63.20
2022-10-20T10:48:53.992Z,62.27
2022-10-20T10:51:30.918Z,62.27
2022-10-20T10:54:35.688Z,60.37
2022-10-20T10:57:26.213Z,61.25
2022-10-20T10:59:53.563Z,58.29
2022-10-20T11:02:42.068Z,56.99
2022-10-20T11:05:23.124Z,56.55
2022-10-20T11:08:11.256Z,55.95
2022-10-20T11:10:46.955Z,55.39
2022-10-20T11:13:34.815Z,54.22
2022-10-20T11:16:40.507Z,53.75
2022-10-20T11:19:28.292Z,53.81
2022-10-20T11:22:17.331Z,55.20
2022-10-20T11:25:05.405Z,53.46
2022-10-20T11:27:36.570Z,53.41
2022-10-20T11:30:08.586Z,54.49
2022-10-20T11:32:43.998Z,52.77
2022-10-20T11:35:28.620Z,52.61
2022-10-20T11:38:23.723Z,53.25
2022-10-20T11:40:58.236Z,53.14
2022-10-20T11:43:36.915Z,53.64
2022-10-20T11:46:05.903Z,53.02
2022-10-20T11:48:49.105Z,51.92
2022-10-20T11:51:38.022Z,54.33
2022-10-20T11:54:07.932Z,54.07
2022-10-20T11:56:53.212Z,56.23
2022-10-20T11:59:28.766Z,55.75
2022-10-20T12:02:29.501Z,57.15
2022-10-20T12:05:30.352Z,58.04
2022-10-20T12:08:28.175Z,59.38
2022-10-20T12:11:13.890Z,58.94
2022-10-20T12:13:46.733Z,60.70
2022-10-20T12:16:33.525Z,61.03
2022-10-20T12:19:17.631Z,60.60
2022-10-20T12:21:57.951Z,59.69
2022-10-20T12:24:33.504Z,61.09
2022-10-20T12:27:09.240Z,61.20
2022-10-20T12:29:35.916Z,61.26
2022-10-20T12:32:21.416Z,61.60
2022-10-20T12:34:49.700Z,62.54
2022-10-20T12:37:25.931Z,62.05
2022-10-20T12:40:00.068Z,61.75
2022-10-20T12:42:26.765Z,62.59
2022-10-20T12:44:54.435Z,61.73
2022-10-20T12:47:27.616Z,62.40
2022-10-20T12:50:07.815Z,61.93
2022-10-20T12:52:38.434Z,61.32
2022-10-20T12:55:07.381Z,61.44
2022-10-20T12:57:42.684Z,61.33
2022-10-20T13:00:22.301Z,61.42
2022-10-20T13:02:54.247Z,60.89
2022-10-20T13:05:41.757Z,61.36
2022-10-20T13:08:24.070Z,61.86
2022-10-20T13:10:53.778Z,60.89
2022-10-20T13:13:20.443Z,60.69
2022-10-20T13:15:53.248Z,61.02
2022-10-20T13:18:32.646Z,61.67
2022-10-20T13:21:23.302Z,60.31
2022-10-20T13:24:02.251Z,60.35
2022-10-20T13:26:47.444Z,60.90
2022-10-20T13:29:25.576Z,60.48
2022-10-20T13:32:24.487Z,60.41
2022-10-20T13:34:57.355Z,60.14
2022-10-20T13:37:45.145Z,59.99
2022-10-20T13:40:36.859Z,59.51
2022-10-20T13:43:21.856Z,60.32
2022-10-20T13:46:06.746Z,60.09
2022-10-20T13:48:56.420Z,60.24
2022-10-20T13:51:30.228Z,60.94
2022-10-20T13:54:03.945Z,59.77
2022-10-20T13:56:43.351Z,61.21
2022-10-20T13:59:31.903Z,60.27
2022-10-20T14:02:33.404Z,59.98
2022-10-20T14:05:10.915Z,61.67
2022-10-20T14:07:44.775Z,62.47
2022-10-20T14:10:28.041Z,62.18
2022-10-20T14:12:55.811Z,62.13
2022-10-20T14:15:32.701Z,62.47
2022-10-20T14:18:07.716Z,62.56
2022-10-20T14:20:41.766Z,62.99
2022-10-20T14:23:11.081Z,62.79
2022-10-20T14:25:39.627Z,63.50
2022-10-20T14:28:07.575Z,64.24
2022-10-20T14:30:40.036Z,64.66
2022-10-20T14:33:18.346Z,64.07
2022-10-20T14:35:57.394Z,63.43
2022-10-20T14:38:35.586Z,63.99
2022-10-20T14:41:03.242Z,63.85
2022-10-20T14:43:40.797Z,64.57
2022-10-20T14:46:10.838Z,64.98
2022-10-20T14:48:44.317Z,65.94
2022-10-20T14:51:53.702Z,65.73
2022-10-20T14:54:20.468Z,66.52
2022-10-20T14:56:48.980Z,66.64
2022-10-20T14:59:18.328Z,67.21
2022-10-20T15:02:19.249Z,67.16
2022-10-20T15:04:48.062Z,67.21
2022-10-20T15:07:28.784Z,67.41
2022-10-20T15:10:05.166Z,68.06
2022-10-20T15:12:44.868Z,67.97
2022-10-20T15:15:11.818Z,68.14
2022-10-20T15:17:49.608Z,68.22
2022-10-20T15:20:39.678Z,68.23
2022-10-20T15:23:10.754Z,68.68
2022-10-20T15:25:48.711Z,68.78
2022-10-20T15:28:29.274Z,69.00
2022-10-20T15:30:56.867Z,69.71
2022-10-20T15:33:23.832Z,69.57
2022-10-20T15:35:52.088Z,70.00
2022-10-20T15:38:19.291Z,70.34
2022-10-20T15:40:46.694Z,71.78
2022-10-20T15:43:15.781Z,72.66
2022-10-20T15:45:54.974Z,72.55
2022-10-20T15:48:25.877Z,73.12
2022-10-20T15:50:54.156Z,73.45
2022-10-20T15:53:21.197Z,73.34
2022-10-20T15:55:47.947Z,73.73
2022-10-20T15:58:14.606Z,74.20
2022-10-20T16:00:41.487Z,74.47
2022-10-20T16:03:16.723Z,75.05
2022-10-20T16:05:43.948Z,74.94
2022-10-20T16:08:10.665Z,75.44
2022-10-20T16:10:38.884Z,75.79
2022-10-20T16:13:06.275Z,76.05
2022-10-20T16:15:32.985Z,76.15
2022-10-20T16:17:59.724Z,76.58
2022-10-20T16:20:26.605Z,77.03
2022-10-20T16:22:53.808Z,77.19
2022-10-20T16:25:20.532Z,77.34
2022-10-20T16:27:47.209Z,77.20
2022-10-20T16:30:13.974Z,77.08
2022-10-20T16:32:41.035Z,77.24
2022-10-20T16:35:08.437Z,77.22
2022-10-20T16:37:35.695Z,77.27
2022-10-20T16:40:03.047Z,76.92
2022-10-20T16:42:30.298Z,76.43
2022-10-20T16:44:57.370Z,75.70
2022-10-20T16:47:25.336Z,75.74
2022-10-20T16:49:52.336Z,75.85
2022-10-20T16:52:19.304Z,75.86
2022-10-20T16:54:45.953Z,75.88
2022-10-20T16:57:13.297Z,75.47
2022-10-20T16:59:40.136Z,75.41
2022-10-20T17:02:07.197Z,74.94
2022-10-20T17:04:33.990Z,75.21
2022-10-20T17:07:00.841Z,75.06
2022-10-20T17:09:30.058Z,75.31
2022-10-20T17:11:57.131Z,75.09
2022-10-20T17:14:23.860Z,75.41
2022-10-20T17:16:50.578Z,75.47
2022-10-20T17:19:17.946Z,75.25
2022-10-20T17:21:44.861Z,75.08
2022-10-20T17:24:13.490Z,75.68
2022-10-20T17:26:41.398Z,75.67
2022-10-20T17:29:09.441Z,75.92
2022-10-20T17:31:37.578Z,75.82
2022-10-20T17:34:05.171Z,75.91
2022-10-20T17:36:32.867Z,75.96
2022-10-20T17:39:06.446Z,76.29
2022-10-20T17:41:33.343Z,76.02
2022-10-20T17:44:01.016Z,75.89
2022-10-20T17:46:28.496Z,76.18
2022-10-20T17:48:55.239Z,76.52
2022-10-20T17:51:28.952Z,76.18
2022-10-20T17:53:58.677Z,76.17
2022-10-20T17:56:27.931Z,75.86
2022-10-20T17:58:55.884Z,76.26
2022-10-20T18:01:25.719Z,76.42
2022-10-20T18:04:01.642Z,76.60
2022-10-20T18:06:34.074Z,76.64
2022-10-20T18:09:05.246Z,76.72
2022-10-20T18:11:34.387Z,77.18
2022-10-20T18:14:01.704Z,77.27
2022-10-20T18:16:30.549Z,77.18
2022-10-20T18:21:26.593Z,77.63
2022-10-20T18:23:57.876Z,77.58
2022-10-20T18:26:25.476Z,77.69
2022-10-20T18:28:52.657Z,77.45
2022-10-20T18:31:22.661Z,77.97
2022-10-20T18:33:57.165Z,78.08
2022-10-20T18:36:25.193Z,78.23
2022-10-20T18:38:53.511Z,78.86
2022-10-20T18:41:26.854Z,78.68
2022-10-20T18:43:58.040Z,79.40
2022-10-20T18:46:26.740Z,79.19
2022-10-20T18:48:54.355Z,78.97
2022-10-20T18:51:21.488Z,79.46
2022-10-20T18:53:52.633Z,79.53
2022-10-20T18:56:21.113Z,79.80
2022-10-20T18:59:09.388Z,80.20
2022-10-20T19:01:38.416Z,80.36
2022-10-20T19:04:06.220Z,79.98
2022-10-20T19:06:41.917Z,80.25
2022-10-20T19:09:11.757Z,81.72
2022-10-20T19:11:39.821Z,80.59
2022-10-20T19:14:09.601Z,80.56
2022-10-20T19:16:36.811Z,80.84
2022-10-20T19:19:05.862Z,80.91
2022-10-20T19:21:33.503Z,81.04
2022-10-20T19:24:09.973Z,81.17
2022-10-20T19:26:42.485Z,81.44
2022-10-20T19:29:12.380Z,81.59
2022-10-20T19:31:45.477Z,81.82
2022-10-20T19:34:24.907Z,81.75
2022-10-20T19:36:51.924Z,82.05
2022-10-20T19:41:58.416Z,82.16
2022-10-20T19:44:25.414Z,82.23
2022-10-20T19:46:52.616Z,82.08
2022-10-20T19:49:20.804Z,82.43
2022-10-20T19:51:48.292Z,82.00
2022-10-20T19:54:15.429Z,82.04
2022-10-20T19:56:42.727Z,82.60
2022-10-20T19:59:09.816Z,82.21
2022-10-20T20:01:37.592Z,82.01
2022-10-20T20:04:04.855Z,82.13
2022-10-20T20:06:32.497Z,82.17
2022-10-20T20:09:01.483Z,82.27
2022-10-20T20:11:31.015Z,81.96
2022-10-20T20:14:03.770Z,82.10
2022-10-20T20:16:37.543Z,82.19
2022-10-20T20:19:06.096Z,82.19
2022-10-20T20:21:33.180Z,82.33
2022-10-20T20:24:02.375Z,82.42
2022-10-20T20:26:31.170Z,82.63
2022-10-20T20:28:58.604Z,82.44
2022-10-20T20:31:26.925Z,83.31
2022-10-20T20:33:54.443Z,82.95
2022-10-20T20:36:21.414Z,82.55
2022-10-20T20:38:48.241Z,82.91
2022-10-20T20:41:17.942Z,83.04
2022-10-20T20:43:45.276Z,82.87
2022-10-20T20:46:18.056Z,83.07
2022-10-20T20:48:45.182Z,83.23
2022-10-20T20:51:13.416Z,83.55
2022-10-20T20:53:40.636Z,83.41
2022-10-20T20:56:10.308Z,83.54
2022-10-20T20:58:37.531Z,83.52
2022-10-20T21:01:17.873Z,84.19
2022-10-20T21:03:45.723Z,83.56
2022-10-20T21:06:17.619Z,83.45
2022-10-20T21:08:47.480Z,84.01
2022-10-20T21:11:20.015Z,83.68
2022-10-20T21:13:48.305Z,83.58
2022-10-20T21:16:17.789Z,83.61
2022-10-20T21:18:47.451Z,86.32
2022-10-20T21:21:20.626Z,83.64
2022-10-20T21:23:47.574Z,83.56
2022-10-20T21:26:16.764Z,83.60
2022-10-20T21:28:44.004Z,83.70
2022-10-20T21:31:13.903Z,83.76
2022-10-20T21:33:41.410Z,84.13
2022-10-20T21:36:11.251Z,84.39
2022-10-20T21:38:40.106Z,84.16
2022-10-20T21:41:13.674Z,84.16
2022-10-20T21:43:43.654Z,84.21
2022-10-20T21:46:16.146Z,84.40
2022-10-20T21:48:44.330Z,84.25
2022-10-20T21:51:18.661Z,84.37
2022-10-20T21:53:45.972Z,84.20
2022-10-20T21:56:13.499Z,84.21
2022-10-20T21:58:40.490Z,83.95
2022-10-20T22:01:12.747Z,83.86
2022-10-20T22:03:39.921Z,84.03
2022-10-20T22:06:07.944Z,83.66
2022-10-20T22:08:39.496Z,83.92
2022-10-20T22:11:10.366Z,84.39
2022-10-20T22:13:37.138Z,84.16
2022-10-20T22:16:06.728Z,84.26
2022-10-20T22:18:33.542Z,84.13
2022-10-20T22:21:11.166Z,84.11
2022-10-20T22:23:41.161Z,83.88
2022-10-20T22:26:08.361Z,83.67
2022-10-20T22:28:35.220Z,83.86
2022-10-20T22:33:34.095Z,84.07
2022-10-20T22:36:00.975Z,84.17
2022-10-20T22:38:27.730Z,84.32
2022-10-20T22:40:59.595Z,84.78
2022-10-20T22:43:27.103Z,85.81
2022-10-20T22:45:54.155Z,86.77
2022-10-20T22:48:21.346Z,87.35
2022-10-20T22:50:48.154Z,88.76
2022-10-20T22:53:14.800Z,89.28
2022-10-20T22:55:41.953Z,89.54
2022-10-20T22:58:08.646Z,90.91
2022-10-20T23:00:35.570Z,91.52
2022-10-20T23:03:02.294Z,92.44
2022-10-20T23:05:29.013Z,94.04
2022-10-20T23:07:55.694Z,94.99
2022-10-20T23:10:22.426Z,95.07
2022-10-20T23:12:49.029Z,94.69
2022-10-20T23:15:15.724Z,94.92
2022-10-20T23:17:42.333Z,95.07
2022-10-20T23:20:09.658Z,96.12
2022-10-20T23:22:36.334Z,96.20
2022-10-20T23:25:03.472Z,96.67
2022-10-20T23:27:33.546Z,97.03
2022-10-20T23:30:00.204Z,97.52
2022-10-20T23:32:26.874Z,98.27
2022-10-20T23:34:54.789Z,98.03
2022-10-20T23:37:23.699Z,98.32
2022-10-20T23:39:50.569Z,99.72
2022-10-20T23:42:17.654Z,100.40
2022-10-20T23:44:44.388Z,100.25
2022-10-20T23:47:11.058Z,100.83
2022-10-20T23:49:37.715Z,101.03
2022-10-20T23:52:04.636Z,100.93
2022-10-20T23:54:31.239Z,101.54
2022-10-20T23:56:58.024Z,101.37
2022-10-20T23:59:24.656Z,101.76
